Essendon, Australia
Current Conditions -  °F | °C
As of 1:30 AM on Saturday 29 Nov 2014 (Local Time) from YMEN Reporting Station
Broken Clouds Broken Clouds  
Wind Chill: 52°   Ceiling: 1700
Heat Index: 52°   Visibility: 6mi
Dew Point: 50°   Wind: 6mph
Humidity: 94%   Direction: 280°W
Pressure: 30.06"   Gusts: NA
Location:  37.75°S, 144.91°E
Report Text: YMEN 281430Z AUTO 28005KT 9999 // BKN017 11/10 Q1018
Loading
Personal Weather Stations






























Interactive Weather Map New forecast layout! Learn more

10-Day Weather Forecast

Advertisements
Track Severe Weather on mobile